sensor_id;sensor_type;location;lat;lon;timestamp;P1;durP1;ratioP1;P2;durP2;ratioP2
64619;SDS011;51029;51.058;13.826;2022-11-14T00:00:47;26.57;;;20.33;;
64619;SDS011;51029;51.058;13.826;2022-11-14T00:03:13;25.87;;;19.20;;
64619;SDS011;51029;51.058;13.826;2022-11-14T00:05:39;25.43;;;20.53;;
64619;SDS011;51029;51.058;13.826;2022-11-14T00:08:07;26.73;;;20.10;;
64619;SDS011;51029;51.058;13.826;2022-11-14T00:10:39;27.30;;;20.23;;
64619;SDS011;51029;51.058;13.826;2022-11-14T00:13:05;28.90;;;20.53;;
64619;SDS011;51029;51.058;13.826;2022-11-14T00:15:30;24.77;;;19.77;;
64619;SDS011;51029;51.058;13.826;2022-11-14T00:17:56;24.63;;;19.57;;
64619;SDS011;51029;51.058;13.826;2022-11-14T00:20:21;23.60;;;19.10;;
64619;SDS011;51029;51.058;13.826;2022-11-14T00:22:47;27.70;;;20.13;;
64619;SDS011;51029;51.058;13.826;2022-11-14T00:25:13;27.50;;;19.83;;
64619;SDS011;51029;51.058;13.826;2022-11-14T00:27:38;28.17;;;20.13;;
64619;SDS011;51029;51.058;13.826;2022-11-14T00:30:04;26.27;;;19.83;;
64619;SDS011;51029;51.058;13.826;2022-11-14T00:32:30;27.63;;;19.93;;
64619;SDS011;51029;51.058;13.826;2022-11-14T00:34:56;26.10;;;19.43;;
64619;SDS011;51029;51.058;13.826;2022-11-14T00:37:21;25.40;;;19.37;;
64619;SDS011;51029;51.058;13.826;2022-11-14T00:39:47;24.10;;;18.60;;
64619;SDS011;51029;51.058;13.826;2022-11-14T00:42:12;24.87;;;19.17;;
64619;SDS011;51029;51.058;13.826;2022-11-14T00:44:38;25.87;;;19.47;;
64619;SDS011;51029;51.058;13.826;2022-11-14T00:47:03;23.97;;;19.17;;
64619;SDS011;51029;51.058;13.826;2022-11-14T00:49:29;24.57;;;19.10;;
64619;SDS011;51029;51.058;13.826;2022-11-14T00:51:54;24.73;;;19.50;;
64619;SDS011;51029;51.058;13.826;2022-11-14T00:54:20;22.73;;;18.17;;
64619;SDS011;51029;51.058;13.826;2022-11-14T00:56:46;25.17;;;19.03;;
64619;SDS011;51029;51.058;13.826;2022-11-14T00:59:11;20.87;;;17.80;;
64619;SDS011;51029;51.058;13.826;2022-11-14T01:01:37;20.70;;;17.30;;
64619;SDS011;51029;51.058;13.826;2022-11-14T01:04:02;24.23;;;18.50;;
64619;SDS011;51029;51.058;13.826;2022-11-14T01:06:28;21.83;;;17.57;;
64619;SDS011;51029;51.058;13.826;2022-11-14T01:08:54;22.40;;;17.73;;
64619;SDS011;51029;51.058;13.826;2022-11-14T01:11:20;25.33;;;17.80;;
64619;SDS011;51029;51.058;13.826;2022-11-14T01:13:46;23.07;;;17.63;;
64619;SDS011;51029;51.058;13.826;2022-11-14T01:16:12;24.70;;;17.30;;
64619;SDS011;51029;51.058;13.826;2022-11-14T01:18:38;24.47;;;18.60;;
64619;SDS011;51029;51.058;13.826;2022-11-14T01:21:08;20.60;;;16.63;;
64619;SDS011;51029;51.058;13.826;2022-11-14T01:23:36;20.53;;;17.17;;
64619;SDS011;51029;51.058;13.826;2022-11-14T01:26:06;20.80;;;16.43;;
64619;SDS011;51029;51.058;13.826;2022-11-14T01:28:34;23.73;;;17.40;;
64619;SDS011;51029;51.058;13.826;2022-11-14T01:31:10;22.30;;;17.23;;
64619;SDS011;51029;51.058;13.826;2022-11-14T01:33:38;22.07;;;17.20;;
64619;SDS011;51029;51.058;13.826;2022-11-14T01:36:04;22.20;;;16.93;;
64619;SDS011;51029;51.058;13.826;2022-11-14T01:38:31;20.53;;;16.67;;
64619;SDS011;51029;51.058;13.826;2022-11-14T01:40:56;19.90;;;16.13;;
64619;SDS011;51029;51.058;13.826;2022-11-14T01:53:54;21.70;;;17.50;;
64619;SDS011;51029;51.058;13.826;2022-11-14T01:56:27;19.07;;;16.17;;
64619;SDS011;51029;51.058;13.826;2022-11-14T01:58:58;21.00;;;16.23;;
64619;SDS011;51029;51.058;13.826;2022-11-14T02:01:33;20.53;;;16.47;;
64619;SDS011;51029;51.058;13.826;2022-11-14T02:04:02;22.37;;;17.33;;
64619;SDS011;51029;51.058;13.826;2022-11-14T02:06:30;22.00;;;17.27;;
64619;SDS011;51029;51.058;13.826;2022-11-14T02:08:57;24.13;;;17.53;;
64619;SDS011;51029;51.058;13.826;2022-11-14T02:11:27;19.33;;;16.17;;
64619;SDS011;51029;51.058;13.826;2022-11-14T02:13:55;23.53;;;17.43;;
64619;SDS011;51029;51.058;13.826;2022-11-14T02:16:23;20.43;;;16.57;;
64619;SDS011;51029;51.058;13.826;2022-11-14T02:18:49;19.43;;;16.30;;
64619;SDS011;51029;51.058;13.826;2022-11-14T02:21:15;21.17;;;16.80;;
64619;SDS011;51029;51.058;13.826;2022-11-14T02:23:40;21.40;;;16.27;;
64619;SDS011;51029;51.058;13.826;2022-11-14T02:26:06;20.93;;;16.60;;
64619;SDS011;51029;51.058;13.826;2022-11-14T02:28:31;22.37;;;18.03;;
64619;SDS011;51029;51.058;13.826;2022-11-14T02:30:57;23.53;;;17.67;;
64619;SDS011;51029;51.058;13.826;2022-11-14T02:33:22;20.47;;;16.00;;
64619;SDS011;51029;51.058;13.826;2022-11-14T02:35:48;20.03;;;16.53;;
64619;SDS011;51029;51.058;13.826;2022-11-14T02:38:14;21.40;;;16.97;;
64619;SDS011;51029;51.058;13.826;2022-11-14T02:40:39;23.83;;;16.90;;
64619;SDS011;51029;51.058;13.826;2022-11-14T02:43:05;23.07;;;17.07;;
64619;SDS011;51029;51.058;13.826;2022-11-14T02:45:31;20.90;;;16.53;;
64619;SDS011;51029;51.058;13.826;2022-11-14T02:47:56;19.63;;;16.03;;
64619;SDS011;51029;51.058;13.826;2022-11-14T02:50:22;21.60;;;16.87;;
64619;SDS011;51029;51.058;13.826;2022-11-14T02:52:47;20.87;;;16.40;;
64619;SDS011;51029;51.058;13.826;2022-11-14T02:55:13;18.70;;;15.80;;
64619;SDS011;51029;51.058;13.826;2022-11-14T02:57:39;21.47;;;16.40;;
64619;SDS011;51029;51.058;13.826;2022-11-14T03:00:04;21.33;;;17.00;;
64619;SDS011;51029;51.058;13.826;2022-11-14T03:02:30;21.40;;;16.50;;
64619;SDS011;51029;51.058;13.826;2022-11-14T03:04:56;21.77;;;16.07;;
64619;SDS011;51029;51.058;13.826;2022-11-14T03:07:22;22.87;;;17.43;;
64619;SDS011;51029;51.058;13.826;2022-11-14T03:09:47;20.20;;;16.90;;
64619;SDS011;51029;51.058;13.826;2022-11-14T03:12:16;22.30;;;16.80;;
64619;SDS011;51029;51.058;13.826;2022-11-14T03:14:42;21.97;;;15.83;;
64619;SDS011;51029;51.058;13.826;2022-11-14T03:17:08;20.67;;;17.03;;
64619;SDS011;51029;51.058;13.826;2022-11-14T03:19:34;23.47;;;16.53;;
64619;SDS011;51029;51.058;13.826;2022-11-14T03:22:00;19.80;;;15.50;;
64619;SDS011;51029;51.058;13.826;2022-11-14T03:24:25;20.00;;;16.43;;
64619;SDS011;51029;51.058;13.826;2022-11-14T03:26:51;20.90;;;16.50;;
64619;SDS011;51029;51.058;13.826;2022-11-14T03:29:17;20.63;;;16.50;;
64619;SDS011;51029;51.058;13.826;2022-11-14T03:31:42;20.63;;;16.20;;
64619;SDS011;51029;51.058;13.826;2022-11-14T03:34:09;21.67;;;16.77;;
64619;SDS011;51029;51.058;13.826;2022-11-14T03:36:35;19.53;;;15.50;;
64619;SDS011;51029;51.058;13.826;2022-11-14T03:39:01;20.50;;;16.50;;
64619;SDS011;51029;51.058;13.826;2022-11-14T03:41:27;19.00;;;15.13;;
64619;SDS011;51029;51.058;13.826;2022-11-14T03:43:53;20.67;;;15.93;;
64619;SDS011;51029;51.058;13.826;2022-11-14T03:46:19;19.80;;;15.97;;
64619;SDS011;51029;51.058;13.826;2022-11-14T03:48:44;21.60;;;15.47;;
64619;SDS011;51029;51.058;13.826;2022-11-14T03:51:10;18.97;;;15.33;;
64619;SDS011;51029;51.058;13.826;2022-11-14T03:53:35;18.17;;;15.53;;
64619;SDS011;51029;51.058;13.826;2022-11-14T03:56:01;18.97;;;16.03;;
64619;SDS011;51029;51.058;13.826;2022-11-14T03:58:27;20.73;;;16.77;;
64619;SDS011;51029;51.058;13.826;2022-11-14T04:00:52;21.27;;;17.07;;
64619;SDS011;51029;51.058;13.826;2022-11-14T04:03:20;21.97;;;17.27;;
64619;SDS011;51029;51.058;13.826;2022-11-14T04:05:46;20.77;;;16.90;;
64619;SDS011;51029;51.058;13.826;2022-11-14T04:08:11;19.33;;;16.13;;
64619;SDS011;51029;51.058;13.826;2022-11-14T04:10:37;20.87;;;16.50;;
64619;SDS011;51029;51.058;13.826;2022-11-14T04:13:03;21.83;;;16.60;;
64619;SDS011;51029;51.058;13.826;2022-11-14T04:15:29;21.07;;;16.87;;
64619;SDS011;51029;51.058;13.826;2022-11-14T04:17:55;20.33;;;16.23;;
64619;SDS011;51029;51.058;13.826;2022-11-14T04:20:20;21.83;;;16.37;;
64619;SDS011;51029;51.058;13.826;2022-11-14T04:22:46;21.73;;;16.70;;
64619;SDS011;51029;51.058;13.826;2022-11-14T04:25:12;22.53;;;16.57;;
64619;SDS011;51029;51.058;13.826;2022-11-14T04:27:37;21.67;;;16.73;;
64619;SDS011;51029;51.058;13.826;2022-11-14T04:30:03;23.83;;;16.87;;
64619;SDS011;51029;51.058;13.826;2022-11-14T04:32:30;24.20;;;17.13;;
64619;SDS011;51029;51.058;13.826;2022-11-14T04:34:56;22.00;;;16.90;;
64619;SDS011;51029;51.058;13.826;2022-11-14T04:37:21;20.23;;;16.60;;
64619;SDS011;51029;51.058;13.826;2022-11-14T04:39:47;23.07;;;17.40;;
64619;SDS011;51029;51.058;13.826;2022-11-14T04:42:12;21.87;;;16.70;;
64619;SDS011;51029;51.058;13.826;2022-11-14T04:44:38;21.97;;;16.10;;
64619;SDS011;51029;51.058;13.826;2022-11-14T04:47:04;21.40;;;17.47;;
64619;SDS011;51029;51.058;13.826;2022-11-14T04:49:29;26.70;;;19.17;;
64619;SDS011;51029;51.058;13.826;2022-11-14T04:51:55;19.40;;;17.30;;
64619;SDS011;51029;51.058;13.826;2022-11-14T04:54:20;24.70;;;18.87;;
64619;SDS011;51029;51.058;13.826;2022-11-14T04:56:46;21.33;;;17.67;;
64619;SDS011;51029;51.058;13.826;2022-11-14T04:59:12;21.03;;;17.53;;
64619;SDS011;51029;51.058;13.826;2022-11-14T05:01:37;19.87;;;16.33;;
64619;SDS011;51029;51.058;13.826;2022-11-14T05:04:03;22.43;;;17.03;;
64619;SDS011;51029;51.058;13.826;2022-11-14T05:06:28;24.03;;;18.40;;
64619;SDS011;51029;51.058;13.826;2022-11-14T05:08:54;22.30;;;17.53;;
64619;SDS011;51029;51.058;13.826;2022-11-14T05:11:20;23.13;;;17.37;;
64619;SDS011;51029;51.058;13.826;2022-11-14T05:13:46;21.77;;;17.90;;
64619;SDS011;51029;51.058;13.826;2022-11-14T05:16:12;22.33;;;16.97;;
64619;SDS011;51029;51.058;13.826;2022-11-14T05:18:38;23.40;;;18.67;;
64619;SDS011;51029;51.058;13.826;2022-11-14T05:21:04;22.63;;;17.90;;
64619;SDS011;51029;51.058;13.826;2022-11-14T05:23:29;22.37;;;18.07;;
64619;SDS011;51029;51.058;13.826;2022-11-14T05:26:02;24.87;;;18.33;;
64619;SDS011;51029;51.058;13.826;2022-11-14T05:28:30;22.60;;;18.27;;
64619;SDS011;51029;51.058;13.826;2022-11-14T05:30:59;21.97;;;17.37;;
64619;SDS011;51029;51.058;13.826;2022-11-14T05:33:29;22.03;;;18.03;;
64619;SDS011;51029;51.058;13.826;2022-11-14T05:35:54;21.80;;;18.20;;
64619;SDS011;51029;51.058;13.826;2022-11-14T05:38:20;24.37;;;18.20;;
64619;SDS011;51029;51.058;13.826;2022-11-14T05:40:46;20.23;;;17.57;;
64619;SDS011;51029;51.058;13.826;2022-11-14T05:43:11;24.60;;;19.00;;
64619;SDS011;51029;51.058;13.826;2022-11-14T05:45:37;24.83;;;18.73;;
64619;SDS011;51029;51.058;13.826;2022-11-14T05:48:02;24.27;;;18.57;;
64619;SDS011;51029;51.058;13.826;2022-11-14T05:50:28;25.23;;;17.53;;
64619;SDS011;51029;51.058;13.826;2022-11-14T05:52:55;49.57;;;32.20;;
64619;SDS011;51029;51.058;13.826;2022-11-14T05:55:20;45.70;;;33.73;;
64619;SDS011;51029;51.058;13.826;2022-11-14T05:57:46;24.43;;;19.20;;
64619;SDS011;51029;51.058;13.826;2022-11-14T06:00:11;23.53;;;18.97;;
64619;SDS011;51029;51.058;13.826;2022-11-14T06:02:37;24.87;;;18.97;;
64619;SDS011;51029;51.058;13.826;2022-11-14T06:05:03;24.67;;;19.47;;
64619;SDS011;51029;51.058;13.826;2022-11-14T06:07:29;25.30;;;18.70;;
64619;SDS011;51029;51.058;13.826;2022-11-14T06:09:54;25.07;;;20.03;;
64619;SDS011;51029;51.058;13.826;2022-11-14T06:12:20;25.93;;;19.77;;
64619;SDS011;51029;51.058;13.826;2022-11-14T06:14:45;26.00;;;20.27;;
64619;SDS011;51029;51.058;13.826;2022-11-14T06:17:11;26.53;;;21.00;;
64619;SDS011;51029;51.058;13.826;2022-11-14T06:19:37;23.70;;;19.37;;
64619;SDS011;51029;51.058;13.826;2022-11-14T06:22:02;28.67;;;20.10;;
64619;SDS011;51029;51.058;13.826;2022-11-14T06:24:28;28.23;;;21.37;;
64619;SDS011;51029;51.058;13.826;2022-11-14T06:26:53;28.17;;;21.67;;
64619;SDS011;51029;51.058;13.826;2022-11-14T06:29:19;37.07;;;26.43;;
64619;SDS011;51029;51.058;13.826;2022-11-14T06:31:44;28.43;;;21.20;;
64619;SDS011;51029;51.058;13.826;2022-11-14T06:34:10;28.73;;;21.53;;
64619;SDS011;51029;51.058;13.826;2022-11-14T06:36:37;26.30;;;21.83;;
64619;SDS011;51029;51.058;13.826;2022-11-14T06:39:03;27.47;;;21.53;;
64619;SDS011;51029;51.058;13.826;2022-11-14T06:41:28;28.27;;;21.93;;
64619;SDS011;51029;51.058;13.826;2022-11-14T06:43:54;29.40;;;22.53;;
64619;SDS011;51029;51.058;13.826;2022-11-14T06:46:20;29.27;;;22.97;;
64619;SDS011;51029;51.058;13.826;2022-11-14T06:48:47;29.13;;;22.60;;
64619;SDS011;51029;51.058;13.826;2022-11-14T06:51:14;30.60;;;22.33;;
64619;SDS011;51029;51.058;13.826;2022-11-14T06:53:41;30.00;;;23.10;;
64619;SDS011;51029;51.058;13.826;2022-11-14T06:56:11;29.80;;;22.10;;
64619;SDS011;51029;51.058;13.826;2022-11-14T06:58:39;28.93;;;21.97;;
64619;SDS011;51029;51.058;13.826;2022-11-14T07:03:37;28.33;;;22.33;;
64619;SDS011;51029;51.058;13.826;2022-11-14T07:06:03;28.37;;;21.93;;
64619;SDS011;51029;51.058;13.826;2022-11-14T07:08:29;30.33;;;21.97;;
64619;SDS011;51029;51.058;13.826;2022-11-14T07:13:47;30.43;;;21.87;;
64619;SDS011;51029;51.058;13.826;2022-11-14T07:16:16;30.00;;;21.30;;
64619;SDS011;51029;51.058;13.826;2022-11-14T07:18:41;27.83;;;21.37;;
64619;SDS011;51029;51.058;13.826;2022-11-14T07:21:07;27.63;;;21.23;;
64619;SDS011;51029;51.058;13.826;2022-11-14T07:23:33;28.43;;;22.43;;
64619;SDS011;51029;51.058;13.826;2022-11-14T07:26:02;28.63;;;22.47;;
64619;SDS011;51029;51.058;13.826;2022-11-14T07:28:33;27.33;;;21.93;;
64619;SDS011;51029;51.058;13.826;2022-11-14T07:31:01;26.80;;;22.10;;
64619;SDS011;51029;51.058;13.826;2022-11-14T07:33:28;28.20;;;22.33;;
64619;SDS011;51029;51.058;13.826;2022-11-14T07:35:54;29.53;;;22.30;;
64619;SDS011;51029;51.058;13.826;2022-11-14T07:38:20;28.37;;;21.30;;
64619;SDS011;51029;51.058;13.826;2022-11-14T07:40:52;28.73;;;21.37;;
64619;SDS011;51029;51.058;13.826;2022-11-14T07:43:18;28.30;;;21.90;;
64619;SDS011;51029;51.058;13.826;2022-11-14T07:45:44;26.87;;;21.33;;
64619;SDS011;51029;51.058;13.826;2022-11-14T07:48:09;28.67;;;21.30;;
64619;SDS011;51029;51.058;13.826;2022-11-14T07:50:35;26.93;;;21.47;;
64619;SDS011;51029;51.058;13.826;2022-11-14T07:53:00;30.17;;;22.63;;
64619;SDS011;51029;51.058;13.826;2022-11-14T07:55:26;27.43;;;22.03;;
64619;SDS011;51029;51.058;13.826;2022-11-14T07:57:52;29.70;;;21.80;;
64619;SDS011;51029;51.058;13.826;2022-11-14T08:00:19;29.07;;;22.87;;
64619;SDS011;51029;51.058;13.826;2022-11-14T08:02:45;28.40;;;21.63;;
64619;SDS011;51029;51.058;13.826;2022-11-14T08:05:11;28.90;;;21.87;;
64619;SDS011;51029;51.058;13.826;2022-11-14T08:07:37;28.40;;;22.57;;
64619;SDS011;51029;51.058;13.826;2022-11-14T08:10:03;28.20;;;21.50;;
64619;SDS011;51029;51.058;13.826;2022-11-14T08:12:29;26.43;;;21.50;;
64619;SDS011;51029;51.058;13.826;2022-11-14T08:14:54;29.67;;;21.60;;
64619;SDS011;51029;51.058;13.826;2022-11-14T08:17:20;26.20;;;20.47;;
64619;SDS011;51029;51.058;13.826;2022-11-14T08:19:46;27.53;;;20.67;;
64619;SDS011;51029;51.058;13.826;2022-11-14T08:22:11;26.13;;;20.33;;
64619;SDS011;51029;51.058;13.826;2022-11-14T08:24:37;24.47;;;19.77;;
64619;SDS011;51029;51.058;13.826;2022-11-14T08:27:02;26.07;;;21.13;;
64619;SDS011;51029;51.058;13.826;2022-11-14T08:29:28;27.13;;;21.20;;
64619;SDS011;51029;51.058;13.826;2022-11-14T08:31:54;27.27;;;20.57;;
64619;SDS011;51029;51.058;13.826;2022-11-14T08:34:19;23.97;;;19.50;;
64619;SDS011;51029;51.058;13.826;2022-11-14T08:36:46;24.30;;;20.30;;
64619;SDS011;51029;51.058;13.826;2022-11-14T08:39:12;22.60;;;18.83;;
64619;SDS011;51029;51.058;13.826;2022-11-14T08:41:37;24.03;;;18.57;;
64619;SDS011;51029;51.058;13.826;2022-11-14T08:44:03;22.60;;;18.97;;
64619;SDS011;51029;51.058;13.826;2022-11-14T08:46:28;22.83;;;18.80;;
64619;SDS011;51029;51.058;13.826;2022-11-14T08:48:54;21.00;;;17.10;;
64619;SDS011;51029;51.058;13.826;2022-11-14T08:51:20;22.07;;;16.80;;
64619;SDS011;51029;51.058;13.826;2022-11-14T08:53:45;20.50;;;17.40;;
64619;SDS011;51029;51.058;13.826;2022-11-14T08:56:11;21.70;;;18.60;;
64619;SDS011;51029;51.058;13.826;2022-11-14T08:58:36;22.50;;;17.83;;
64619;SDS011;51029;51.058;13.826;2022-11-14T09:01:04;19.67;;;16.83;;
64619;SDS011;51029;51.058;13.826;2022-11-14T09:03:31;18.77;;;16.33;;
64619;SDS011;51029;51.058;13.826;2022-11-14T09:05:57;18.93;;;16.37;;
64619;SDS011;51029;51.058;13.826;2022-11-14T09:08:23;26.20;;;17.03;;
64619;SDS011;51029;51.058;13.826;2022-11-14T09:10:49;18.50;;;16.50;;
64619;SDS011;51029;51.058;13.826;2022-11-14T09:13:15;20.23;;;17.57;;
64619;SDS011;51029;51.058;13.826;2022-11-14T09:15:41;17.37;;;15.57;;
64619;SDS011;51029;51.058;13.826;2022-11-14T09:18:07;19.53;;;16.17;;
64619;SDS011;51029;51.058;13.826;2022-11-14T09:20:35;18.57;;;15.63;;
64619;SDS011;51029;51.058;13.826;2022-11-14T09:23:01;18.93;;;16.23;;
64619;SDS011;51029;51.058;13.826;2022-11-14T09:25:27;17.90;;;15.60;;
64619;SDS011;51029;51.058;13.826;2022-11-14T09:27:54;18.27;;;15.20;;
64619;SDS011;51029;51.058;13.826;2022-11-14T09:30:20;16.70;;;14.43;;
64619;SDS011;51029;51.058;13.826;2022-11-14T09:32:47;18.00;;;15.53;;
64619;SDS011;51029;51.058;13.826;2022-11-14T09:35:12;19.30;;;15.70;;
64619;SDS011;51029;51.058;13.826;2022-11-14T09:37:38;18.10;;;14.77;;
64619;SDS011;51029;51.058;13.826;2022-11-14T09:40:05;17.80;;;15.03;;
64619;SDS011;51029;51.058;13.826;2022-11-14T09:42:53;17.20;;;14.90;;
64619;SDS011;51029;51.058;13.826;2022-11-14T09:45:30;18.70;;;15.20;;
64619;SDS011;51029;51.058;13.826;2022-11-14T09:48:03;16.87;;;15.07;;
64619;SDS011;51029;51.058;13.826;2022-11-14T09:50:46;18.77;;;15.37;;
64619;SDS011;51029;51.058;13.826;2022-11-14T09:54:05;17.87;;;15.73;;
64619;SDS011;51029;51.058;13.826;2022-11-14T09:56:15;17.73;;;15.13;;
64619;SDS011;51029;51.058;13.826;2022-11-14T09:58:45;17.67;;;15.77;;
64619;SDS011;51029;51.058;13.826;2022-11-14T10:03:41;19.33;;;15.70;;
64619;SDS011;51029;51.058;13.826;2022-11-14T10:06:27;16.37;;;14.60;;
64619;SDS011;51029;51.058;13.826;2022-11-14T10:24:12;17.53;;;15.20;;
64619;SDS011;51029;51.058;13.826;2022-11-14T10:35:02;16.63;;;14.83;;
64619;SDS011;51029;51.058;13.826;2022-11-14T10:37:45;17.43;;;15.40;;
64619;SDS011;51029;51.058;13.826;2022-11-14T10:40:32;16.33;;;14.63;;
64619;SDS011;51029;51.058;13.826;2022-11-14T10:46:02;16.80;;;15.00;;
64619;SDS011;51029;51.058;13.826;2022-11-14T10:48:39;16.00;;;13.93;;
64619;SDS011;51029;51.058;13.826;2022-11-14T10:51:58;15.10;;;13.50;;
64619;SDS011;51029;51.058;13.826;2022-11-14T10:56:34;16.83;;;15.03;;
64619;SDS011;51029;51.058;13.826;2022-11-14T10:59:09;15.67;;;14.03;;
64619;SDS011;51029;51.058;13.826;2022-11-14T11:01:42;15.60;;;13.60;;
64619;SDS011;51029;51.058;13.826;2022-11-14T11:06:39;15.93;;;13.53;;
64619;SDS011;51029;51.058;13.826;2022-11-14T11:09:08;15.13;;;13.40;;
64619;SDS011;51029;51.058;13.826;2022-11-14T11:11:58;14.93;;;13.30;;
64619;SDS011;51029;51.058;13.826;2022-11-14T11:14:28;17.40;;;14.33;;
64619;SDS011;51029;51.058;13.826;2022-11-14T11:19:52;17.10;;;15.00;;
64619;SDS011;51029;51.058;13.826;2022-11-14T11:22:26;15.10;;;13.50;;
64619;SDS011;51029;51.058;13.826;2022-11-14T11:24:54;16.43;;;14.30;;
64619;SDS011;51029;51.058;13.826;2022-11-14T11:27:27;16.03;;;14.37;;
64619;SDS011;51029;51.058;13.826;2022-11-14T11:32:44;14.27;;;12.77;;
64619;SDS011;51029;51.058;13.826;2022-11-14T11:35:11;14.20;;;12.80;;
64619;SDS011;51029;51.058;13.826;2022-11-14T11:37:43;15.97;;;13.93;;
64619;SDS011;51029;51.058;13.826;2022-11-14T11:40:18;14.23;;;12.80;;
64619;SDS011;51029;51.058;13.826;2022-11-14T11:45:21;16.47;;;14.70;;
64619;SDS011;51029;51.058;13.826;2022-11-14T11:47:57;16.43;;;14.20;;
64619;SDS011;51029;51.058;13.826;2022-11-14T11:50:28;14.77;;;13.27;;
64619;SDS011;51029;51.058;13.826;2022-11-14T11:53:11;14.07;;;12.77;;
64619;SDS011;51029;51.058;13.826;2022-11-14T11:55:48;13.93;;;12.53;;
64619;SDS011;51029;51.058;13.826;2022-11-14T11:58:34;16.57;;;14.33;;
64619;SDS011;51029;51.058;13.826;2022-11-14T12:01:11;12.80;;;11.50;;
64619;SDS011;51029;51.058;13.826;2022-11-14T12:03:38;13.63;;;12.43;;
64619;SDS011;51029;51.058;13.826;2022-11-14T12:11:21;14.07;;;12.57;;
64619;SDS011;51029;51.058;13.826;2022-11-14T12:14:03;13.50;;;12.20;;
64619;SDS011;51029;51.058;13.826;2022-11-14T12:25:07;13.80;;;11.97;;
64619;SDS011;51029;51.058;13.826;2022-11-14T12:30:20;13.60;;;12.20;;
64619;SDS011;51029;51.058;13.826;2022-11-14T12:35:25;12.97;;;11.77;;
64619;SDS011;51029;51.058;13.826;2022-11-14T12:37:55;13.27;;;11.80;;
64619;SDS011;51029;51.058;13.826;2022-11-14T12:42:55;13.23;;;11.83;;
64619;SDS011;51029;51.058;13.826;2022-11-14T12:50:46;13.53;;;11.60;;
64619;SDS011;51029;51.058;13.826;2022-11-14T13:06:51;13.33;;;11.97;;
64619;SDS011;51029;51.058;13.826;2022-11-14T13:11:58;13.73;;;11.90;;
64619;SDS011;51029;51.058;13.826;2022-11-14T13:15:01;12.67;;;11.40;;
64619;SDS011;51029;51.058;13.826;2022-11-14T13:18:17;13.03;;;11.63;;
64619;SDS011;51029;51.058;13.826;2022-11-14T13:21:21;13.10;;;11.73;;
64619;SDS011;51029;51.058;13.826;2022-11-14T13:24:08;13.10;;;11.70;;
64619;SDS011;51029;51.058;13.826;2022-11-14T13:26:34;13.43;;;12.03;;
64619;SDS011;51029;51.058;13.826;2022-11-14T13:29:13;13.07;;;11.73;;
64619;SDS011;51029;51.058;13.826;2022-11-14T13:32:09;13.03;;;11.83;;
64619;SDS011;51029;51.058;13.826;2022-11-14T13:45:44;14.40;;;13.00;;
64619;SDS011;51029;51.058;13.826;2022-11-14T13:51:00;15.17;;;13.43;;
64619;SDS011;51029;51.058;13.826;2022-11-14T13:53:30;16.53;;;14.77;;
64619;SDS011;51029;51.058;13.826;2022-11-14T14:09:58;17.43;;;14.93;;
64619;SDS011;51029;51.058;13.826;2022-11-14T14:29:03;19.77;;;16.70;;
64619;SDS011;51029;51.058;13.826;2022-11-14T14:31:41;18.70;;;16.67;;
64619;SDS011;51029;51.058;13.826;2022-11-14T14:36:51;19.97;;;17.17;;
64619;SDS011;51029;51.058;13.826;2022-11-14T14:39:27;20.73;;;17.23;;
64619;SDS011;51029;51.058;13.826;2022-11-14T14:41:54;20.83;;;17.50;;
64619;SDS011;51029;51.058;13.826;2022-11-14T14:46:55;19.77;;;16.87;;
64619;SDS011;51029;51.058;13.826;2022-11-14T14:49:24;20.17;;;17.50;;
64619;SDS011;51029;51.058;13.826;2022-11-14T14:51:52;21.87;;;17.73;;
64619;SDS011;51029;51.058;13.826;2022-11-14T14:54:19;21.77;;;18.47;;
64619;SDS011;51029;51.058;13.826;2022-11-14T14:56:53;21.50;;;18.13;;
64619;SDS011;51029;51.058;13.826;2022-11-14T14:59:27;21.93;;;19.53;;
64619;SDS011;51029;51.058;13.826;2022-11-14T15:01:55;22.93;;;19.17;;
64619;SDS011;51029;51.058;13.826;2022-11-14T15:04:22;24.60;;;19.80;;
64619;SDS011;51029;51.058;13.826;2022-11-14T15:06:51;21.53;;;18.73;;
64619;SDS011;51029;51.058;13.826;2022-11-14T15:09:26;25.17;;;20.07;;
64619;SDS011;51029;51.058;13.826;2022-11-14T15:11:58;24.27;;;20.87;;
64619;SDS011;51029;51.058;13.826;2022-11-14T15:14:29;25.10;;;21.57;;
64619;SDS011;51029;51.058;13.826;2022-11-14T15:16:56;23.17;;;19.40;;
64619;SDS011;51029;51.058;13.826;2022-11-14T15:19:24;23.20;;;19.33;;
64619;SDS011;51029;51.058;13.826;2022-11-14T15:22:18;26.43;;;20.73;;
64619;SDS011;51029;51.058;13.826;2022-11-14T15:24:43;27.53;;;21.00;;
64619;SDS011;51029;51.058;13.826;2022-11-14T15:27:46;24.43;;;20.77;;
64619;SDS011;51029;51.058;13.826;2022-11-14T15:30:24;25.57;;;21.07;;
64619;SDS011;51029;51.058;13.826;2022-11-14T15:32:52;26.77;;;22.00;;
64619;SDS011;51029;51.058;13.826;2022-11-14T15:46:25;27.73;;;22.23;;
64619;SDS011;51029;51.058;13.826;2022-11-14T15:48:57;28.73;;;23.20;;
64619;SDS011;51029;51.058;13.826;2022-11-14T15:56:54;30.87;;;23.90;;
64619;SDS011;51029;51.058;13.826;2022-11-14T15:59:24;30.57;;;24.33;;
64619;SDS011;51029;51.058;13.826;2022-11-14T16:01:51;28.63;;;23.60;;
64619;SDS011;51029;51.058;13.826;2022-11-14T16:04:23;29.33;;;23.00;;
64619;SDS011;51029;51.058;13.826;2022-11-14T16:06:53;29.53;;;23.27;;
64619;SDS011;51029;51.058;13.826;2022-11-14T16:09:19;30.73;;;24.23;;
64619;SDS011;51029;51.058;13.826;2022-11-14T16:11:47;31.50;;;24.27;;
64619;SDS011;51029;51.058;13.826;2022-11-14T16:14:12;29.03;;;23.50;;
64619;SDS011;51029;51.058;13.826;2022-11-14T16:16:38;29.83;;;24.33;;
64619;SDS011;51029;51.058;13.826;2022-11-14T16:19:05;33.40;;;24.47;;
64619;SDS011;51029;51.058;13.826;2022-11-14T16:21:31;30.43;;;24.13;;
64619;SDS011;51029;51.058;13.826;2022-11-14T16:23:57;29.80;;;24.53;;
64619;SDS011;51029;51.058;13.826;2022-11-14T16:26:23;28.30;;;23.87;;
64619;SDS011;51029;51.058;13.826;2022-11-14T16:28:51;29.27;;;23.53;;
64619;SDS011;51029;51.058;13.826;2022-11-14T16:31:17;34.20;;;26.33;;
64619;SDS011;51029;51.058;13.826;2022-11-14T16:33:43;31.17;;;25.60;;
64619;SDS011;51029;51.058;13.826;2022-11-14T16:36:11;31.77;;;24.60;;
64619;SDS011;51029;51.058;13.826;2022-11-14T16:38:37;30.87;;;24.83;;
64619;SDS011;51029;51.058;13.826;2022-11-14T16:41:06;32.53;;;26.13;;
64619;SDS011;51029;51.058;13.826;2022-11-14T16:43:33;30.80;;;25.57;;
64619;SDS011;51029;51.058;13.826;2022-11-14T16:46:04;47.37;;;34.37;;
64619;SDS011;51029;51.058;13.826;2022-11-14T16:48:31;34.83;;;27.27;;
64619;SDS011;51029;51.058;13.826;2022-11-14T16:51:00;36.70;;;28.40;;
64619;SDS011;51029;51.058;13.826;2022-11-14T16:53:27;35.93;;;28.40;;
64619;SDS011;51029;51.058;13.826;2022-11-14T16:55:53;36.63;;;29.07;;
64619;SDS011;51029;51.058;13.826;2022-11-14T16:58:18;37.47;;;28.77;;
64619;SDS011;51029;51.058;13.826;2022-11-14T17:00:44;35.60;;;28.50;;
64619;SDS011;51029;51.058;13.826;2022-11-14T17:03:10;36.47;;;28.10;;